Time;durP1;ratioP1;P1;durP2;ratioP2;P2;SDS_P1;SDS_P2;PMS_P1;PMS_P2;Temp;Humidity;BMP_temperature;BMP_pressure;BME280_temperature;BME280_humidity;BME280_pressure;Samples;Min_cycle;Max_cycle;Signal;HPM_P1;HPM_P2
2022/07/11 00:00:05;;;;;;;3.63;1.92;;;;;;;16.69;96.03;102071.94;20830418;28;20054;-65
2022/07/11 00:10:26;;;;;;;6.10;2.40;;;;;;;16.69;96.13;102076.34;20861588;28;20060;-64
2022/07/11 00:20:48;;;;;;;8.13;2.50;;;;;;;16.68;97.48;102072.91;20852009;28;20045;-65
2022/07/11 00:31:10;;;;;;;6.18;2.22;;;;;;;16.68;98.28;102062.38;20836953;28;20045;-64
2022/07/11 00:41:32;;;;;;;7.28;2.00;;;;;;;16.62;96.27;102065.41;20810104;28;1100231;-64
2022/07/11 00:51:54;;;;;;;3.10;1.35;;;;;;;16.52;97.13;102066.16;20850110;28;20055;-64
2022/07/11 01:02:15;;;;;;;7.97;1.60;;;;;;;16.48;97.69;102055.00;20851822;28;20073;-64
2022/07/11 01:12:37;;;;;;;4.85;1.33;;;;;;;16.47;98.60;102058.59;20847912;28;20654;-65
2022/07/11 01:23:08;;;;;;;4.72;1.60;;;;;;;16.48;99.12;102054.19;20841393;28;20520;-65
2022/07/11 01:33:32;;;;;;;4.83;1.73;;;;;;;16.42;98.33;102052.81;20846188;28;20060;-65
2022/07/11 01:43:54;;;;;;;2.20;1.38;;;;;;;16.45;98.18;102044.69;20837187;28;20049;-64
2022/07/11 01:54:15;;;;;;;5.85;1.70;;;;;;;16.47;98.37;102039.31;20847847;28;20045;-64
2022/07/11 02:04:37;;;;;;;3.95;1.55;;;;;;;16.47;97.35;102044.59;20841159;28;20045;-64
2022/07/11 02:14:58;;;;;;;;;;;;;;;16.52;100.00;102050.34;20848635;28;20079;-64
2022/07/11 02:25:22;;;;;;;2.92;1.88;;;;;;;16.42;98.52;102048.50;20838384;28;20279;-64
2022/07/11 02:35:46;;;;;;;3.90;1.60;;;;;;;16.47;97.48;102042.78;20848929;28;20044;-63
2022/07/11 02:46:07;;;;;;;2.92;1.63;;;;;;;16.49;97.88;102042.69;20839968;28;20049;-64
2022/07/11 02:56:29;;;;;;;2.92;2.03;;;;;;;16.46;99.34;102051.63;20835764;28;20053;-64
2022/07/11 03:06:51;;;;;;;3.95;2.20;;;;;;;16.40;99.87;102050.38;20840911;28;20037;-64
2022/07/11 03:17:12;;;;;;;4.15;1.83;;;;;;;16.29;100.00;102045.81;20835642;28;20045;-64
2022/07/11 03:27:34;;;;;;;4.05;1.63;;;;;;;16.30;100.00;102049.31;20836161;28;20064;-64
2022/07/11 03:37:55;;;;;;;2.45;1.60;;;;;;;16.28;100.00;102053.84;20855477;28;20568;-66
2022/07/11 03:48:17;;;;;;;;;;;;;;;16.32;100.00;102052.69;20853133;28;20053;-66
2022/07/11 03:58:38;;;;;;;2.25;1.95;;;;;;;16.26;100.00;102058.34;20856699;28;20396;-66
2022/07/11 04:09:00;;;;;;;2.60;1.70;;;;;;;16.24;100.00;102054.97;20858249;28;20068;-66
2022/07/11 04:19:23;;;;;;;;;;;;;;;16.39;100.00;102056.59;20851106;28;20041;-66
2022/07/11 04:29:44;;;;;;;2.60;1.63;;;;;;;16.30;100.00;102059.84;20843906;28;19929;-66
2022/07/11 04:40:06;;;;;;;3.70;1.65;;;;;;;16.32;100.00;102064.06;20846353;28;20113;-65
2022/07/11 04:50:33;;;;;;;2.47;1.55;;;;;;;16.27;100.00;102073.19;20837550;28;20045;-65
2022/07/11 05:00:55;;;;;;;;;;;;;;;16.38;100.00;102073.34;20851296;28;20525;-66
2022/07/11 05:11:16;;;;;;;;;;;;;;;16.35;100.00;102073.53;20847300;28;20308;-66
2022/07/11 05:21:38;;;;;;;;;;;;;;;16.53;100.00;102079.22;20847159;28;19925;-66
2022/07/11 05:32:00;;;;;;;1.50;1.30;;;;;;;16.44;100.00;102085.16;20839126;28;20024;-65
2022/07/11 05:42:21;;;;;;;2.30;1.27;;;;;;;16.54;100.00;102096.72;20828874;28;20548;-65
2022/07/11 05:52:43;;;;;;;4.22;1.60;;;;;;;16.69;100.00;102095.66;20844189;28;20393;-65
2022/07/11 06:03:04;;;;;;;;;;;;;;;16.83;100.00;102090.25;20849603;28;20049;-66
2022/07/11 06:13:29;;;;;;;;;;;;;;;16.83;100.00;102103.44;20840527;28;19920;-65
2022/07/11 06:23:51;;;;;;;;;;;;;;;16.70;100.00;102110.50;20835949;28;19935;-64
2022/07/11 06:34:13;;;;;;;;;;;;;;;16.76;100.00;102107.44;20819689;28;19955;-66
2022/07/11 06:44:34;;;;;;;;;;;;;;;16.93;100.00;102104.47;20833644;28;19925;-65
2022/07/11 06:54:57;;;;;;;;;;;;;;;17.21;100.00;102091.00;20857876;28;19927;-64
2022/07/11 07:05:18;;;;;;;0.50;0.50;;;;;;;17.34;100.00;102098.91;20835916;28;20343;-65
2022/07/11 07:15:40;;;;;;;1.38;0.65;;;;;;;17.39;97.81;102095.00;20853524;28;20048;-65
2022/07/11 07:26:02;;;;;;;1.02;0.50;;;;;;;17.37;98.21;102106.59;20831439;28;20057;-65
2022/07/11 07:36:23;;;;;;;2.92;0.40;;;;;;;17.24;99.76;102109.25;20823270;28;20057;-64
2022/07/11 07:46:45;;;;;;;0.45;0.35;;;;;;;17.26;100.00;102117.03;20869006;28;20049;-66
2022/07/11 07:57:06;;;;;;;1.45;0.60;;;;;;;17.13;98.83;102126.75;20817829;28;20073;-66
2022/07/11 08:07:28;;;;;;;2.65;0.50;;;;;;;17.08;100.00;102121.81;20829179;28;20414;-66
2022/07/11 08:17:49;;;;;;;1.80;0.40;;;;;;;17.22;100.00;102137.50;20834873;28;20055;-68
2022/07/11 08:28:11;;;;;;;1.85;0.40;;;;;;;17.55;100.00;102140.38;20802162;28;20068;-67
2022/07/11 08:38:33;;;;;;;0.68;0.47;;;;;;;17.82;98.03;102141.00;20833466;28;20056;-66
2022/07/11 08:48:55;;;;;;;2.22;0.43;;;;;;;17.88;97.65;102137.94;20832274;28;20047;-66
2022/07/11 08:59:18;;;;;;;0.85;0.32;;;;;;;18.00;93.62;102126.47;20831624;28;20511;-67
2022/07/11 09:09:39;;;;;;;0.45;0.30;;;;;;;18.22;95.22;102137.94;20831207;28;20123;-66
2022/07/11 09:20:01;;;;;;;0.70;0.30;;;;;;;18.35;94.11;102132.56;20832267;28;20394;-67
2022/07/11 09:30:24;;;;;;;1.08;0.50;;;;;;;18.65;95.40;102131.09;20841469;28;20393;-67
2022/07/11 09:40:48;;;;;;;2.22;0.32;;;;;;;18.87;92.41;102126.66;20836249;28;20041;-67
2022/07/11 09:51:19;;;;;;;2.20;0.40;;;;;;;18.92;94.17;102121.84;20812295;28;20095;-66
2022/07/11 10:01:41;;;;;;;0.50;0.38;;;;;;;18.95;92.62;102126.88;20832035;28;20060;-66
2022/07/11 10:12:03;;;;;;;0.38;0.20;;;;;;;19.05;91.89;102135.78;20832718;28;20474;-66
2022/07/11 10:22:36;;;;;;;1.23;0.35;;;;;;;19.40;91.53;102131.19;20809544;28;20088;-67
2022/07/11 10:33:00;;;;;;;0.45;0.30;;;;;;;19.39;87.96;102127.72;20841894;28;20052;-66
2022/07/11 10:43:22;;;;;;;0.85;0.22;;;;;;;19.15;90.44;102151.78;20835608;28;20045;-66
2022/07/11 10:53:48;;;;;;;0.63;0.30;;;;;;;18.84;97.43;102171.00;20844909;28;20045;-66
2022/07/11 11:04:44;;;;;;;0.85;0.40;;;;;;;18.77;100.00;102161.84;20826547;28;20041;-66
2022/07/11 11:15:31;;;;;;;0.85;0.47;;;;;;;18.66;100.00;102165.31;20840749;28;20045;-67
2022/07/11 11:25:53;;;;;;;0.57;0.35;;;;;;;18.58;100.00;102169.50;20838816;28;20044;-66
2022/07/11 11:36:17;;;;;;;0.43;0.30;;;;;;;18.72;100.00;102166.63;20842395;28;20069;-66
2022/07/11 11:46:39;;;;;;;0.55;0.40;;;;;;;18.69;96.96;102172.19;20840509;28;20458;-66
2022/07/11 11:57:10;;;;;;;1.17;0.30;;;;;;;18.71;98.77;102176.38;20829972;28;20075;-67
2022/07/11 12:07:32;;;;;;;0.50;0.30;;;;;;;18.84;97.38;102171.81;20837005;28;20108;-65
2022/07/11 12:18:03;;;;;;;0.30;0.30;;;;;;;19.36;93.43;102166.78;20851669;28;20045;-66
2022/07/11 12:28:25;;;;;;;0.52;0.17;;;;;;;19.68;90.96;102167.69;20829007;28;20129;-65
2022/07/11 12:38:53;;;;;;;0.57;0.32;;;;;;;19.87;91.05;102158.13;20863928;28;20168;-65
2022/07/11 12:49:16;;;;;;;3.83;1.00;;;;;;;20.04;89.10;102160.25;20844736;28;20474;-65
2022/07/11 12:59:40;;;;;;;0.30;0.30;;;;;;;20.10;85.91;102164.19;20842403;28;20039;-66
2022/07/11 13:10:03;;;;;;;0.47;0.30;;;;;;;20.20;87.11;102155.38;20837011;28;20099;-69
2022/07/11 13:20:26;;;;;;;1.17;0.20;;;;;;;20.17;88.02;102152.16;20842318;28;20057;-67
2022/07/11 13:30:48;;;;;;;0.28;0.17;;;;;;;20.15;87.25;102157.59;20842324;28;20096;-68
2022/07/11 13:41:30;;;;;;;0.65;0.20;;;;;;;20.21;86.34;102172.13;20837145;28;20041;-63
2022/07/11 13:51:52;;;;;;;0.32;0.32;;;;;;;20.43;84.78;102171.03;20838702;28;20051;-65
2022/07/11 14:02:14;;;;;;;2.25;0.40;;;;;;;20.41;83.93;102167.66;20832904;28;20136;-65
2022/07/11 14:12:36;;;;;;;0.95;0.40;;;;;;;20.31;84.70;102173.03;20835208;28;20049;-65
2022/07/11 14:22:58;;;;;;;2.70;0.40;;;;;;;20.56;84.14;102169.00;20837657;28;20047;-65
2022/07/11 14:33:20;;;;;;;0.75;0.30;;;;;;;20.50;83.58;102174.84;20837570;28;20041;-65
2022/07/11 14:43:42;;;;;;;0.30;0.30;;;;;;;20.50;83.50;102171.34;20824185;28;20033;-64
2022/07/11 14:54:03;;;;;;;0.40;0.40;;;;;;;20.59;82.80;102174.06;20837327;28;20041;-64
2022/07/11 15:04:25;;;;;;;0.40;0.40;;;;;;;20.51;83.21;102171.22;20836486;28;20089;-65
2022/07/11 15:14:48;;;;;;;0.98;0.45;;;;;;;20.47;84.13;102169.81;20820920;28;20152;-64
2022/07/11 15:25:11;;;;;;;4.75;0.65;;;;;;;20.76;84.09;102181.41;20820052;28;20065;-64
2022/07/11 15:35:33;;;;;;;0.30;0.30;;;;;;;20.88;81.86;102175.09;20831615;28;20056;-65
2022/07/11 15:45:55;;;;;;;0.20;0.20;;;;;;;20.84;82.46;102171.03;20829258;28;20052;-65
2022/07/11 15:56:16;;;;;;;0.82;0.22;;;;;;;20.60;82.24;102175.75;20821911;28;20053;-66
2022/07/11 16:06:38;;;;;;;0.68;0.30;;;;;;;20.56;82.11;102179.63;20826817;28;20037;-64
2022/07/11 16:17:00;;;;;;;0.30;0.30;;;;;;;20.74;81.67;102180.72;20826409;28;20041;-65
2022/07/11 16:27:22;;;;;;;0.80;0.38;;;;;;;20.72;81.69;102187.94;20829281;28;20056;-65
2022/07/11 16:37:43;;;;;;;0.30;0.30;;;;;;;20.78;82.01;102178.63;20829524;28;20438;-65
2022/07/11 16:48:05;;;;;;;1.20;0.40;;;;;;;20.65;83.14;102188.59;20814649;28;20045;-66
2022/07/11 16:58:30;;;;;;;1.02;0.40;;;;;;;20.62;83.19;102189.72;20805529;28;20048;-66
2022/07/11 17:08:52;;;;;;;1.10;0.47;;;;;;;20.61;84.20;102190.69;20822429;28;20033;-65
2022/07/11 17:19:13;;;;;;;2.22;0.30;;;;;;;20.64;82.31;102187.78;20825168;28;20049;-65
2022/07/11 17:29:35;;;;;;;0.98;0.40;;;;;;;20.54;82.65;102181.56;20825663;28;20063;-65
2022/07/11 17:39:57;;;;;;;0.88;0.32;;;;;;;20.35;83.70;102187.69;20798030;28;20050;-66
2022/07/11 17:50:19;;;;;;;1.02;0.30;;;;;;;20.31;83.48;102199.50;20817623;28;20057;-65
2022/07/11 18:00:41;;;;;;;0.70;0.35;;;;;;;20.25;82.26;102205.31;20794208;28;20075;-66
2022/07/11 18:11:02;;;;;;;0.55;0.25;;;;;;;20.16;82.38;102195.50;20794520;28;20048;-66
2022/07/11 18:21:24;;;;;;;0.32;0.32;;;;;;;20.06;82.32;102218.41;20788065;28;20044;-65
2022/07/11 18:31:45;;;;;;;0.95;0.40;;;;;;;19.96;82.66;102214.78;20796607;28;20049;-64
2022/07/11 18:42:07;;;;;;;0.63;0.40;;;;;;;19.85;83.69;102225.41;20804374;28;20052;-66
2022/07/11 18:52:29;;;;;;;0.35;0.30;;;;;;;19.67;84.29;102224.22;20802775;28;20132;-62
2022/07/11 19:02:50;;;;;;;0.98;0.40;;;;;;;19.63;84.13;102212.22;20796114;28;20053;-64
2022/07/11 19:13:12;;;;;;;1.70;0.55;;;;;;;19.58;85.30;102209.09;20809064;28;20060;-64
2022/07/11 19:23:34;;;;;;;0.93;0.63;;;;;;;19.54;85.66;102229.69;20832684;28;20044;-65
2022/07/11 19:33:56;;;;;;;0.75;0.57;;;;;;;19.44;86.01;102238.47;20818754;28;20711;-65
2022/07/11 19:44:19;;;;;;;2.08;0.50;;;;;;;19.33;85.07;102262.28;20810859;28;20414;-65
2022/07/11 20:05:22;;;;;;;0.67;0.60;;;;;;;19.16;86.49;102269.81;20830731;28;20097;-62
2022/07/11 20:15:44;;;;;;;0.50;0.50;;;;;;;19.04;86.35;102268.06;20813896;28;20052;-65
2022/07/11 20:26:06;;;;;;;0.88;0.60;;;;;;;18.93;87.22;102274.19;20815416;28;20049;-66
2022/07/11 20:36:27;;;;;;;0.65;0.60;;;;;;;18.85;86.68;102271.28;20817542;28;20053;-65
2022/07/11 20:46:49;;;;;;;0.43;0.43;;;;;;;18.81;87.44;102264.53;20813375;28;20051;-64
2022/07/11 20:57:11;;;;;;;1.45;0.70;;;;;;;18.76;87.73;102260.56;20818668;28;20033;-65
2022/07/11 21:07:33;;;;;;;0.60;0.57;;;;;;;18.71;88.02;102258.28;20803840;28;20525;-64
2022/07/11 21:17:54;;;;;;;0.88;0.70;;;;;;;18.66;89.19;102270.97;20806325;28;20421;-64
2022/07/11 21:28:17;;;;;;;0.95;0.90;;;;;;;18.56;89.57;102264.72;20824338;28;20053;-64
2022/07/11 21:38:39;;;;;;;1.95;0.98;;;;;;;18.50;90.30;102264.34;20827126;28;20052;-66
2022/07/11 21:49:01;;;;;;;3.42;0.95;;;;;;;18.49;89.46;102266.13;20792969;28;20387;-65
2022/07/11 21:59:22;;;;;;;1.27;1.10;;;;;;;18.42;89.81;102280.75;20801600;28;20102;-64
2022/07/11 22:09:44;;;;;;;1.10;0.80;;;;;;;18.38;89.79;102285.50;20799422;28;20144;-64
2022/07/11 22:20:06;;;;;;;1.98;0.80;;;;;;;18.28;89.84;102284.53;20821758;28;20049;-64
2022/07/11 22:30:27;;;;;;;1.25;1.02;;;;;;;18.34;89.11;102295.47;20833121;28;20060;-65
2022/07/11 22:40:49;;;;;;;2.60;1.00;;;;;;;18.35;89.77;102291.00;20825107;28;20053;-63
2022/07/11 22:51:11;;;;;;;1.25;1.10;;;;;;;18.38;88.66;102294.31;20820422;28;20064;-64
2022/07/11 23:01:32;;;;;;;2.05;1.02;;;;;;;18.23;88.38;102286.63;20816359;28;20474;-64
2022/07/11 23:11:54;;;;;;;1.60;0.80;;;;;;;18.20;87.82;102286.81;20796700;28;20045;-65
2022/07/11 23:22:16;;;;;;;1.02;0.70;;;;;;;18.14;87.54;102282.84;20810490;28;20056;-64
2022/07/11 23:32:37;;;;;;;1.17;1.02;;;;;;;18.16;87.30;102290.66;20808380;28;20073;-64
2022/07/11 23:42:59;;;;;;;1.42;0.80;;;;;;;18.10;87.54;102275.25;20818258;28;20037;-65
2022/07/11 23:53:20;;;;;;;0.60;0.60;;;;;;;18.12;86.96;102284.75;20838641;28;20056;-64
